This is the latest recevied weather packets stored in our database for station/object W7OG-10. If no packets are shown the sender has not sent any weather packets the latest 10 day(s).
| Time | Temp. | Humidity | Pressure | Rain* | Wind** | Luminosity | Snow |
|---|---|---|---|---|---|---|---|
| 1777629512 | 23.89° C | 98% | 1016.2 hPa | 0 mm | - | - | - |
| 1777619912 | 23.89° C | 97% | 1016.2 hPa | 0 mm | - | - | - |
| 1777618712 | 24.44° C | 97% | 1016 hPa | 0 mm | - | - | - |
| 1777612733 | 25° C | 94% | 1015.7 hPa | 0 mm | - | - | - |
| 1777611513 | 25° C | 94% | 1015.6 hPa | 0 mm | - | - | - |
| 1777609713 | 25° C | 94% | 1015.4 hPa | 0 mm | - | - | - |
| 1777608513 | 25° C | 94% | 1015.3 hPa | 0 mm | - | - | - |
| 1777600114 | 27.78° C | 88% | 1015.2 hPa | 0 mm | - | - | - |
| 1777598935 | 28.33° C | 86% | 1015.3 hPa | 0 mm | - | - | - |
| 1777598314 | 28.33° C | 86% | 1015.3 hPa | 0 mm | - | - | - |
| 1777596514 | 28.33° C | 87% | 1015.6 hPa | 0 mm | - | - | - |
| 1777595314 | 28.33° C | 86% | 1015.9 hPa | 0 mm | - | - | - |
| 1777585115 | 28.33° C | 88% | 1017.8 hPa | 0 mm | - | - | - |
| 1777584515 | 27.78° C | 90% | 1018 hPa | 0 mm | - | - | - |
| 1777580316 | 28.33° C | 84% | 1018.6 hPa | 0 mm | - | - | - |
| 1777576716 | 27.78° C | 88% | 1019.2 hPa | 0 mm | - | - | - |
| 1777574916 | 27.22° C | 88% | 1019.5 hPa | 0 mm | - | - | - |
| 1777571916 | 26.67° C | 93% | 1019.9 hPa | 0 mm | - | - | - |
| 1777571316 | 26.67° C | 93% | 1019.9 hPa | 0 mm | - | - | - |
| 1777570116 | 26.11° C | 94% | 1020 hPa | 0 mm | - | - | - |
| 1777569516 | 26.11° C | 94% | 1019.9 hPa | 0 mm | - | - | - |
| 1777568916 | 26.11° C | 96% | 1019.8 hPa | 0 mm | - | - | - |
| 1777568316 | 26.11° C | 96% | 1019.6 hPa | 0 mm | - | - | - |
| 1777564117 | 25° C | 98% | 1021.2 hPa | 0 mm | - | - | - |
| 1777563516 | 25° C | 99% | 1021.6 hPa | 0 mm | - | - | - |
* Rain latest hour (hover to see other rain measurements)
** Current wind speed in m/s (hover to see current wind gust speed)